sensor_id;sensor_type;location;lat;lon;timestamp;temperature;humidity
31687;DHT22;18285;51.330;4.946;2023-12-07T00:05:23;27.00;28.30
31687;DHT22;18285;51.330;4.946;2023-12-07T00:29:36;27.20;27.90
31687;DHT22;18285;51.330;4.946;2023-12-07T00:53:46;27.20;27.80
31687;DHT22;18285;51.330;4.946;2023-12-07T01:17:57;27.20;27.70
31687;DHT22;18285;51.330;4.946;2023-12-07T01:42:08;27.20;27.60
31687;DHT22;18285;51.330;4.946;2023-12-07T02:06:19;27.10;27.50
31687;DHT22;18285;51.330;4.946;2023-12-07T02:30:31;27.00;27.50
31687;DHT22;18285;51.330;4.946;2023-12-07T02:54:41;26.80;27.70
31687;DHT22;18285;51.330;4.946;2023-12-07T03:18:52;26.70;27.70
31687;DHT22;18285;51.330;4.946;2023-12-07T03:43:03;26.60;27.70
31687;DHT22;18285;51.330;4.946;2023-12-07T04:07:14;26.40;28.00
31687;DHT22;18285;51.330;4.946;2023-12-07T04:31:25;26.30;27.90
31687;DHT22;18285;51.330;4.946;2023-12-07T04:55:36;26.00;28.60
31687;DHT22;18285;51.330;4.946;2023-12-07T05:19:46;25.80;28.90
31687;DHT22;18285;51.330;4.946;2023-12-07T05:43:58;25.70;29.00
31687;DHT22;18285;51.330;4.946;2023-12-07T06:08:08;25.70;29.00
31687;DHT22;18285;51.330;4.946;2023-12-07T06:32:19;25.50;29.60
31687;DHT22;18285;51.330;4.946;2023-12-07T06:56:30;25.50;29.90
31687;DHT22;18285;51.330;4.946;2023-12-07T07:20:40;25.30;29.90
31687;DHT22;18285;51.330;4.946;2023-12-07T07:44:51;25.20;29.50
31687;DHT22;18285;51.330;4.946;2023-12-07T08:09:02;25.00;29.60
31687;DHT22;18285;51.330;4.946;2023-12-07T08:33:14;24.90;29.40
31687;DHT22;18285;51.330;4.946;2023-12-07T08:57:24;24.80;29.80
31687;DHT22;18285;51.330;4.946;2023-12-07T09:21:35;24.80;29.80
31687;DHT22;18285;51.330;4.946;2023-12-07T09:45:47;24.70;29.80
31687;DHT22;18285;51.330;4.946;2023-12-07T10:09:58;24.70;30.10
31687;DHT22;18285;51.330;4.946;2023-12-07T10:34:08;24.60;30.40
31687;DHT22;18285;51.330;4.946;2023-12-07T10:58:21;24.60;30.70
31687;DHT22;18285;51.330;4.946;2023-12-07T11:22:34;24.60;30.90
31687;DHT22;18285;51.330;4.946;2023-12-07T11:46:45;24.50;31.30
31687;DHT22;18285;51.330;4.946;2023-12-07T12:10:56;24.40;31.40
31687;DHT22;18285;51.330;4.946;2023-12-07T12:35:09;24.40;31.60
31687;DHT22;18285;51.330;4.946;2023-12-07T12:59:20;24.40;31.70
31687;DHT22;18285;51.330;4.946;2023-12-07T13:23:32;24.30;31.70
31687;DHT22;18285;51.330;4.946;2023-12-07T13:47:43;24.30;31.70
31687;DHT22;18285;51.330;4.946;2023-12-07T14:11:54;24.20;27.50
31687;DHT22;18285;51.330;4.946;2023-12-07T14:36:06;23.00;29.50
31687;DHT22;18285;51.330;4.946;2023-12-07T15:00:17;23.50;30.00
31687;DHT22;18285;51.330;4.946;2023-12-07T15:24:28;23.70;30.10
31687;DHT22;18285;51.330;4.946;2023-12-07T15:48:39;23.80;29.90
31687;DHT22;18285;51.330;4.946;2023-12-07T16:12:49;23.60;29.20
31687;DHT22;18285;51.330;4.946;2023-12-07T16:37:00;23.70;29.90
31687;DHT22;18285;51.330;4.946;2023-12-07T17:01:11;23.80;30.30
31687;DHT22;18285;51.330;4.946;2023-12-07T17:25:22;23.80;30.80
31687;DHT22;18285;51.330;4.946;2023-12-07T17:49:33;23.70;31.10
31687;DHT22;18285;51.330;4.946;2023-12-07T18:13:43;23.80;31.70
31687;DHT22;18285;51.330;4.946;2023-12-07T18:37:54;24.20;31.30
31687;DHT22;18285;51.330;4.946;2023-12-07T19:02:05;24.60;30.80
31687;DHT22;18285;51.330;4.946;2023-12-07T19:26:15;25.10;30.10
31687;DHT22;18285;51.330;4.946;2023-12-07T19:50:27;25.30;30.10
31687;DHT22;18285;51.330;4.946;2023-12-07T20:14:38;25.50;30.00
31687;DHT22;18285;51.330;4.946;2023-12-07T20:38:50;25.60;29.70
31687;DHT22;18285;51.330;4.946;2023-12-07T21:03:00;25.80;30.20
31687;DHT22;18285;51.330;4.946;2023-12-07T21:27:11;26.10;29.20
31687;DHT22;18285;51.330;4.946;2023-12-07T21:51:22;26.30;29.10
31687;DHT22;18285;51.330;4.946;2023-12-07T22:15:33;26.40;28.70
31687;DHT22;18285;51.330;4.946;2023-12-07T22:39:44;26.80;27.60
31687;DHT22;18285;51.330;4.946;2023-12-07T23:03:54;27.30;27.60
31687;DHT22;18285;51.330;4.946;2023-12-07T23:28:05;27.90;27.10
31687;DHT22;18285;51.330;4.946;2023-12-07T23:52:16;28.30;26.80
